createdAt,value
2022-09-11T00:01:58.731Z,100.00
2022-09-11T00:04:27.812Z,100.00
2022-09-11T00:06:59.591Z,100.00
2022-09-11T00:09:29.593Z,100.00
2022-09-11T00:11:58.330Z,100.00
2022-09-11T00:14:28.323Z,100.00
2022-09-11T00:16:59.800Z,100.00
2022-09-11T00:19:28.320Z,100.00
2022-09-11T00:21:57.539Z,100.00
2022-09-11T00:24:26.357Z,100.00
2022-09-11T00:27:01.292Z,100.00
2022-09-11T00:29:32.654Z,100.00
2022-09-11T00:32:01.028Z,100.00
2022-09-11T00:34:29.587Z,100.00
2022-09-11T00:36:59.560Z,100.00
2022-09-11T00:39:27.967Z,100.00
2022-09-11T00:41:58.464Z,100.00
2022-09-11T00:45:01.966Z,100.00
2022-09-11T00:47:33.391Z,100.00
2022-09-11T00:50:11.430Z,100.00
2022-09-11T00:52:44.636Z,100.00
2022-09-11T00:55:16.316Z,100.00
2022-09-11T00:57:52.170Z,100.00
2022-09-11T01:00:21.321Z,100.00
2022-09-11T01:02:53.752Z,100.00
2022-09-11T01:05:23.967Z,100.00
2022-09-11T01:07:54.935Z,100.00
2022-09-11T01:10:35.507Z,100.00
2022-09-11T01:13:18.750Z,100.00
2022-09-11T01:15:54.675Z,100.00
2022-09-11T01:18:28.592Z,100.00
2022-09-11T01:21:20.065Z,100.00
2022-09-11T01:24:10.564Z,100.00
2022-09-11T01:26:55.716Z,100.00
2022-09-11T01:29:31.068Z,100.00
2022-09-11T01:32:17.511Z,100.00
2022-09-11T01:34:54.503Z,100.00
2022-09-11T01:37:28.545Z,100.00
2022-09-11T01:40:03.415Z,100.00
2022-09-11T01:42:35.051Z,100.00
2022-09-11T01:45:07.438Z,100.00
2022-09-11T01:47:38.432Z,100.00
2022-09-11T01:50:11.679Z,100.00
2022-09-11T01:52:47.575Z,100.00
2022-09-11T01:55:22.061Z,100.00
2022-09-11T01:57:56.491Z,100.00
2022-09-11T02:00:28.917Z,100.00
2022-09-11T02:03:05.479Z,100.00
2022-09-11T02:05:37.845Z,100.00
2022-09-11T02:08:14.078Z,100.00
2022-09-11T02:10:49.102Z,100.00
2022-09-11T02:13:27.828Z,100.00
2022-09-11T02:16:06.954Z,100.00
2022-09-11T02:18:43.200Z,100.00
2022-09-11T02:21:13.618Z,100.00
2022-09-11T02:23:42.675Z,100.00
2022-09-11T02:26:12.533Z,100.00
2022-09-11T02:28:40.706Z,100.00
2022-09-11T02:31:11.277Z,100.00
2022-09-11T02:33:39.750Z,100.00
2022-09-11T02:36:28.466Z,100.00
2022-09-11T02:39:13.355Z,100.00
2022-09-11T02:42:00.941Z,100.00
2022-09-11T02:44:38.192Z,100.00
2022-09-11T02:47:20.965Z,100.00
2022-09-11T02:50:05.536Z,100.00
2022-09-11T02:52:47.858Z,100.00
2022-09-11T02:55:23.927Z,100.00
2022-09-11T02:58:02.301Z,100.00
2022-09-11T03:00:31.458Z,100.00
2022-09-11T03:03:02.624Z,100.00
2022-09-11T03:05:31.874Z,100.00
2022-09-11T03:08:00.395Z,100.00
2022-09-11T03:10:32.262Z,100.00
2022-09-11T03:13:00.589Z,100.00
2022-09-11T03:15:29.205Z,100.00
2022-09-11T03:17:58.047Z,100.00
2022-09-11T03:20:28.017Z,100.00
2022-09-11T03:22:56.828Z,100.00
2022-09-11T03:25:28.407Z,100.00
2022-09-11T03:27:56.758Z,100.00
2022-09-11T03:30:27.319Z,100.00
2022-09-11T03:32:58.692Z,100.00
2022-09-11T03:35:30.215Z,100.00
2022-09-11T03:38:04.185Z,100.00
2022-09-11T03:40:33.659Z,100.00
2022-09-11T03:43:02.934Z,100.00
2022-09-11T03:45:32.778Z,100.00
2022-09-11T03:48:01.533Z,100.00
2022-09-11T03:50:31.716Z,100.00
2022-09-11T03:53:00.769Z,100.00
2022-09-11T03:55:29.910Z,100.00
2022-09-11T03:57:59.237Z,100.00
2022-09-11T04:00:27.999Z,100.00
2022-09-11T04:02:58.032Z,100.00
2022-09-11T04:05:26.956Z,100.00
2022-09-11T04:07:56.952Z,100.00
2022-09-11T04:10:25.224Z,100.00
2022-09-11T04:12:53.629Z,100.00
2022-09-11T04:15:22.570Z,100.00
2022-09-11T04:17:51.147Z,100.00
2022-09-11T04:20:22.095Z,100.00
2022-09-11T04:22:51.192Z,100.00
2022-09-11T04:25:21.410Z,100.00
2022-09-11T04:27:49.871Z,100.00
2022-09-11T04:30:18.579Z,100.00
2022-09-11T04:32:48.024Z,100.00
2022-09-11T04:35:19.424Z,100.00
2022-09-11T04:37:48.459Z,100.00
2022-09-11T04:40:16.781Z,100.00
2022-09-11T04:42:46.963Z,100.00
2022-09-11T04:45:16.367Z,100.00
2022-09-11T04:47:48.468Z,100.00
2022-09-11T04:50:17.093Z,100.00
2022-09-11T04:52:47.826Z,100.00
2022-09-11T04:55:17.202Z,100.00
2022-09-11T04:57:49.827Z,100.00
2022-09-11T05:00:19.070Z,100.00
2022-09-11T05:02:49.731Z,100.00
2022-09-11T05:05:18.159Z,100.00
2022-09-11T05:07:49.456Z,100.00
2022-09-11T05:10:17.904Z,100.00
2022-09-11T05:12:47.779Z,100.00
2022-09-11T05:15:19.830Z,100.00
2022-09-11T05:17:49.032Z,100.00
2022-09-11T05:20:17.793Z,100.00
2022-09-11T05:22:47.296Z,100.00
2022-09-11T05:25:15.804Z,100.00
2022-09-11T05:27:43.929Z,100.00
2022-09-11T05:30:15.848Z,100.00
2022-09-11T05:32:44.569Z,100.00
2022-09-11T05:35:13.003Z,100.00
2022-09-11T05:37:41.630Z,100.00
2022-09-11T05:40:11.265Z,100.00
2022-09-11T05:42:45.216Z,100.00
2022-09-11T05:45:16.012Z,100.00
2022-09-11T05:47:46.312Z,100.00
2022-09-11T05:50:14.941Z,100.00
2022-09-11T05:52:43.383Z,100.00
2022-09-11T05:55:11.868Z,100.00
2022-09-11T05:57:42.543Z,100.00
2022-09-11T06:00:13.436Z,100.00
2022-09-11T06:02:45.538Z,100.00
2022-09-11T06:05:14.147Z,100.00
2022-09-11T06:07:42.637Z,100.00
2022-09-11T06:10:11.672Z,100.00
2022-09-11T06:12:39.967Z,100.00
2022-09-11T06:15:24.867Z,100.00
2022-09-11T06:18:02.797Z,100.00
2022-09-11T06:20:32.757Z,100.00
2022-09-11T06:23:02.639Z,100.00
2022-09-11T06:25:32.629Z,100.00
2022-09-11T06:28:01.139Z,100.00
2022-09-11T06:30:30.023Z,100.00
2022-09-11T06:33:00.628Z,100.00
2022-09-11T06:35:29.048Z,100.00
2022-09-11T06:37:57.453Z,100.00
2022-09-11T06:40:27.575Z,100.00
2022-09-11T06:42:56.062Z,100.00
2022-09-11T06:45:26.297Z,100.00
2022-09-11T06:47:56.418Z,100.00
2022-09-11T06:50:28.377Z,100.00
2022-09-11T06:52:56.645Z,100.00
2022-09-11T06:55:24.730Z,100.00
2022-09-11T06:57:52.861Z,100.00
2022-09-11T07:00:21.386Z,100.00
2022-09-11T07:02:53.193Z,100.00
2022-09-11T07:05:23.658Z,100.00
2022-09-11T07:07:55.958Z,100.00
2022-09-11T07:10:24.841Z,100.00
2022-09-11T07:12:55.611Z,100.00
2022-09-11T07:15:23.960Z,100.00
2022-09-11T07:17:52.382Z,100.00
2022-09-11T07:20:20.971Z,100.00
2022-09-11T07:22:49.090Z,100.00
2022-09-11T07:25:19.040Z,100.00
2022-09-11T07:27:47.411Z,100.00
2022-09-11T07:30:16.087Z,100.00
2022-09-11T07:32:45.360Z,100.00
2022-09-11T07:35:21.608Z,100.00
2022-09-11T07:37:51.037Z,100.00
2022-09-11T07:40:21.473Z,100.00
2022-09-11T07:42:51.480Z,100.00
2022-09-11T07:45:22.550Z,100.00
2022-09-11T07:47:51.122Z,100.00
2022-09-11T07:50:19.328Z,100.00
2022-09-11T07:52:48.610Z,100.00
2022-09-11T07:55:17.157Z,100.00
2022-09-11T07:57:50.810Z,100.00
2022-09-11T08:00:20.311Z,100.00
2022-09-11T08:02:48.994Z,100.00
2022-09-11T08:05:18.822Z,100.00
2022-09-11T08:07:47.160Z,100.00
2022-09-11T08:10:27.306Z,100.00
2022-09-11T08:13:00.286Z,100.00
2022-09-11T08:15:31.578Z,100.00
2022-09-11T08:18:00.966Z,100.00
2022-09-11T08:20:29.151Z,100.00
2022-09-11T08:22:57.341Z,100.00
2022-09-11T08:25:25.511Z,100.00
2022-09-11T08:27:53.929Z,100.00
2022-09-11T08:30:24.005Z,100.00
2022-09-11T08:32:52.149Z,100.00
2022-09-11T08:35:20.706Z,100.00
2022-09-11T08:37:52.884Z,100.00
2022-09-11T08:40:24.232Z,100.00
2022-09-11T08:42:56.059Z,100.00
2022-09-11T08:45:30.130Z,100.00
2022-09-11T08:48:00.967Z,100.00
2022-09-11T08:50:36.251Z,100.00
2022-09-11T08:53:09.721Z,100.00
2022-09-11T08:55:46.747Z,100.00
2022-09-11T08:58:22.357Z,100.00
2022-09-11T09:00:59.528Z,100.00
2022-09-11T09:03:43.287Z,100.00
2022-09-11T09:06:26.423Z,100.00
2022-09-11T09:09:04.040Z,100.00
2022-09-11T09:11:42.080Z,100.00
2022-09-11T09:14:34.130Z,100.00
2022-09-11T09:17:06.908Z,100.00
2022-09-11T09:19:40.061Z,100.00
2022-09-11T09:22:17.583Z,100.00
2022-09-11T09:24:50.527Z,100.00
2022-09-11T09:27:23.374Z,100.00
2022-09-11T09:29:58.207Z,100.00
2022-09-11T09:32:46.365Z,100.00
2022-09-11T09:35:19.736Z,100.00
2022-09-11T09:37:48.851Z,100.00
2022-09-11T09:40:19.353Z,100.00
2022-09-11T09:43:12.309Z,100.00
2022-09-11T09:45:50.084Z,100.00
2022-09-11T09:48:20.950Z,100.00
2022-09-11T09:50:49.405Z,100.00
2022-09-11T09:53:32.734Z,100.00
2022-09-11T09:56:01.972Z,100.00
2022-09-11T09:58:36.324Z,100.00
2022-09-11T10:01:04.969Z,100.00
2022-09-11T10:03:35.266Z,100.00
2022-09-11T10:06:10.267Z,100.00
2022-09-11T10:08:39.665Z,100.00
2022-09-11T10:11:12.336Z,100.00
2022-09-11T10:13:44.360Z,100.00
2022-09-11T10:16:22.135Z,100.00
2022-09-11T10:18:53.609Z,100.00
2022-09-11T10:21:25.447Z,100.00
2022-09-11T10:23:57.156Z,100.00
2022-09-11T10:26:30.516Z,100.00
2022-09-11T10:29:07.292Z,100.00
2022-09-11T10:31:37.475Z,100.00
2022-09-11T10:34:08.372Z,100.00
2022-09-11T10:36:36.955Z,100.00
2022-09-11T10:39:06.471Z,100.00
2022-09-11T10:41:36.469Z,100.00
2022-09-11T10:44:08.092Z,100.00
2022-09-11T10:46:40.862Z,100.00
2022-09-11T10:49:19.693Z,100.00
2022-09-11T10:52:06.158Z,100.00
2022-09-11T10:55:00.316Z,100.00
2022-09-11T10:57:33.732Z,100.00
2022-09-11T11:00:09.448Z,100.00
2022-09-11T11:02:41.337Z,100.00
2022-09-11T11:05:21.318Z,100.00
2022-09-11T11:08:13.643Z,100.00
2022-09-11T11:10:59.736Z,100.00
2022-09-11T11:13:43.173Z,100.00
2022-09-11T11:16:25.746Z,100.00
2022-09-11T11:19:10.983Z,100.00
2022-09-11T11:21:53.484Z,100.00
2022-09-11T11:24:35.790Z,100.00
2022-09-11T11:27:33.509Z,100.00
2022-09-11T11:30:11.418Z,100.00
2022-09-11T11:32:58.490Z,100.00
2022-09-11T11:35:36.193Z,100.00
2022-09-11T11:38:16.753Z,100.00
2022-09-11T11:40:49.599Z,100.00
2022-09-11T11:43:24.957Z,100.00
2022-09-11T11:45:59.640Z,100.00
2022-09-11T11:48:37.088Z,100.00
2022-09-11T11:51:10.267Z,100.00
2022-09-11T11:53:48.799Z,100.00
2022-09-11T11:56:27.607Z,100.00
2022-09-11T11:59:04.329Z,100.00
2022-09-11T12:01:40.347Z,100.00
2022-09-11T12:04:20.281Z,100.00
2022-09-11T12:06:49.037Z,100.00
2022-09-11T12:09:20.748Z,100.00
2022-09-11T12:11:53.240Z,100.00
2022-09-11T12:14:29.161Z,100.00
2022-09-11T12:16:58.561Z,100.00
2022-09-11T12:19:27.149Z,98.98
2022-09-11T12:22:16.141Z,92.24
2022-09-11T12:25:32.466Z,94.87
2022-09-11T12:28:21.343Z,100.00
2022-09-11T12:31:02.186Z,100.00
2022-09-11T12:33:58.550Z,100.00
2022-09-11T12:36:51.732Z,100.00
2022-09-11T12:39:27.966Z,100.00
2022-09-11T12:42:29.388Z,100.00
2022-09-11T12:45:01.466Z,100.00
2022-09-11T12:47:36.928Z,100.00
2022-09-11T12:50:17.546Z,100.00
2022-09-11T12:52:52.190Z,100.00
2022-09-11T12:55:33.456Z,100.00
2022-09-11T12:58:05.477Z,100.00
2022-09-11T13:00:40.965Z,100.00
2022-09-11T13:03:19.186Z,100.00
2022-09-11T13:05:55.648Z,100.00
2022-09-11T13:08:27.864Z,100.00
2022-09-11T13:11:36.427Z,100.00
2022-09-11T13:14:09.247Z,100.00
2022-09-11T13:16:50.772Z,94.75
2022-09-11T13:19:20.921Z,87.34
2022-09-11T13:21:56.953Z,85.84
2022-09-11T13:24:26.819Z,85.52
2022-09-11T13:27:00.763Z,93.39
2022-09-11T13:29:30.860Z,91.77
2022-09-11T13:32:11.566Z,87.39
2022-09-11T13:34:40.754Z,93.45
2022-09-11T13:37:11.318Z,91.49
2022-09-11T13:39:43.001Z,95.04
2022-09-11T13:42:16.859Z,95.84
2022-09-11T13:44:47.816Z,93.72
2022-09-11T13:47:22.098Z,95.74
2022-09-11T13:49:53.500Z,93.09
2022-09-11T13:52:24.820Z,100.00
2022-09-11T13:54:55.945Z,100.00
2022-09-11T13:57:26.447Z,98.63
2022-09-11T13:59:57.181Z,96.40
2022-09-11T14:02:54.065Z,97.23
2022-09-11T14:05:26.402Z,94.84
2022-09-11T14:08:01.743Z,100.00
2022-09-11T14:10:35.645Z,100.00
2022-09-11T14:13:15.290Z,100.00
2022-09-11T14:15:52.219Z,100.00
2022-09-11T14:18:33.920Z,100.00
2022-09-11T14:21:07.868Z,100.00
2022-09-11T14:23:44.097Z,100.00
2022-09-11T14:26:17.138Z,100.00
2022-09-11T14:29:02.555Z,100.00
2022-09-11T14:31:35.893Z,100.00
2022-09-11T14:34:19.561Z,100.00
2022-09-11T14:36:53.574Z,100.00
2022-09-11T14:39:36.512Z,100.00
2022-09-11T14:42:09.438Z,100.00
2022-09-11T14:44:39.634Z,100.00
2022-09-11T14:47:16.465Z,100.00
2022-09-11T14:49:47.175Z,100.00
2022-09-11T14:52:19.775Z,100.00
2022-09-11T14:54:51.615Z,100.00
2022-09-11T14:57:23.166Z,100.00
2022-09-11T14:59:54.462Z,99.86
2022-09-11T15:02:25.829Z,96.92
2022-09-11T15:04:57.996Z,96.61
2022-09-11T15:07:29.202Z,97.19
2022-09-11T15:09:57.839Z,98.25
2022-09-11T15:12:29.471Z,96.74
2022-09-11T15:14:59.413Z,96.93
2022-09-11T15:17:31.975Z,98.62
2022-09-11T15:20:02.611Z,98.63
2022-09-11T15:22:35.386Z,100.00
2022-09-11T15:25:03.856Z,100.00
2022-09-11T15:27:32.294Z,100.00
2022-09-11T15:30:00.799Z,100.00
2022-09-11T15:32:29.316Z,100.00
2022-09-11T15:34:57.537Z,100.00
2022-09-11T15:37:27.700Z,100.00
2022-09-11T15:39:56.408Z,98.86
2022-09-11T15:42:25.658Z,100.00
2022-09-11T15:44:54.562Z,99.04
2022-09-11T15:47:23.190Z,99.66
2022-09-11T15:49:51.818Z,97.12
2022-09-11T15:52:20.407Z,92.72
2022-09-11T15:54:51.120Z,90.24
2022-09-11T15:57:19.958Z,93.11
2022-09-11T15:59:50.164Z,96.13
2022-09-11T16:02:18.921Z,98.70
2022-09-11T16:04:51.647Z,100.00
2022-09-11T16:07:22.417Z,100.00
2022-09-11T16:09:52.782Z,100.00
2022-09-11T16:12:24.495Z,100.00
2022-09-11T16:14:52.830Z,100.00
2022-09-11T16:17:23.264Z,100.00
2022-09-11T16:19:55.250Z,100.00
2022-09-11T16:22:25.892Z,100.00
2022-09-11T16:24:56.548Z,100.00
2022-09-11T16:27:26.018Z,100.00
2022-09-11T16:30:39.204Z,100.00
2022-09-11T16:32:45.443Z,100.00
2022-09-11T16:35:15.682Z,100.00
2022-09-11T16:37:44.394Z,100.00
2022-09-11T16:40:16.986Z,100.00
2022-09-11T16:42:46.709Z,100.00
2022-09-11T16:45:16.075Z,100.00
2022-09-11T16:47:44.784Z,100.00
2022-09-11T16:50:13.356Z,100.00
2022-09-11T16:52:41.394Z,100.00
2022-09-11T16:55:11.702Z,100.00
2022-09-11T16:57:41.680Z,100.00
2022-09-11T17:00:14.712Z,100.00
2022-09-11T17:02:43.099Z,100.00
2022-09-11T17:05:12.459Z,100.00
2022-09-11T17:07:45.632Z,96.79
2022-09-11T17:10:15.507Z,97.22
2022-09-11T17:12:45.270Z,95.73
2022-09-11T17:15:13.568Z,96.97
2022-09-11T17:17:43.872Z,99.15
2022-09-11T17:20:13.323Z,100.00
2022-09-11T17:22:41.879Z,100.00
2022-09-11T17:25:12.128Z,100.00
2022-09-11T17:27:40.497Z,100.00
2022-09-11T17:30:17.093Z,100.00
2022-09-11T17:32:45.905Z,100.00
2022-09-11T17:35:14.876Z,100.00
2022-09-11T17:37:46.203Z,100.00
2022-09-11T17:40:15.249Z,100.00
2022-09-11T17:42:43.901Z,100.00
2022-09-11T17:45:15.777Z,100.00
2022-09-11T17:47:44.494Z,100.00
2022-09-11T17:50:15.198Z,100.00
2022-09-11T17:52:43.674Z,100.00
2022-09-11T17:55:12.054Z,100.00
2022-09-11T17:57:44.505Z,100.00
2022-09-11T18:00:17.064Z,100.00
2022-09-11T18:02:46.814Z,100.00
2022-09-11T18:05:17.608Z,100.00
2022-09-11T18:07:48.391Z,100.00
2022-09-11T18:10:16.796Z,100.00
2022-09-11T18:12:45.138Z,100.00
2022-09-11T18:15:16.018Z,100.00
2022-09-11T18:17:48.184Z,100.00
2022-09-11T18:20:18.133Z,100.00
2022-09-11T18:22:46.215Z,100.00
2022-09-11T18:25:17.453Z,100.00
2022-09-11T18:27:49.956Z,100.00
2022-09-11T18:30:20.957Z,100.00
2022-09-11T18:32:50.021Z,100.00
2022-09-11T18:35:19.066Z,100.00
2022-09-11T18:37:49.316Z,100.00
2022-09-11T18:40:18.257Z,100.00
2022-09-11T18:42:46.864Z,100.00
2022-09-11T18:45:18.998Z,100.00
2022-09-11T18:47:53.288Z,100.00
2022-09-11T18:50:24.323Z,100.00
2022-09-11T18:52:54.865Z,100.00
2022-09-11T18:55:24.575Z,100.00
2022-09-11T18:57:55.638Z,100.00
2022-09-11T19:00:24.032Z,100.00
2022-09-11T19:02:57.269Z,100.00
2022-09-11T19:05:26.559Z,100.00
2022-09-11T19:08:04.182Z,100.00
2022-09-11T19:10:32.651Z,100.00
2022-09-11T19:13:01.281Z,100.00
2022-09-11T19:15:31.880Z,100.00
2022-09-11T19:18:02.424Z,100.00
2022-09-11T19:20:31.163Z,100.00
2022-09-11T19:23:02.912Z,100.00
2022-09-11T19:25:31.906Z,100.00
2022-09-11T19:28:00.413Z,100.00
2022-09-11T19:30:29.475Z,100.00
2022-09-11T19:32:57.703Z,100.00
2022-09-11T19:35:30.176Z,100.00
2022-09-11T19:38:00.272Z,100.00
2022-09-11T19:40:28.536Z,100.00
2022-09-11T19:42:57.850Z,100.00
2022-09-11T19:45:27.952Z,100.00
2022-09-11T19:48:00.223Z,100.00
2022-09-11T19:50:34.054Z,100.00
2022-09-11T19:53:04.149Z,100.00
2022-09-11T19:55:35.410Z,100.00
2022-09-11T19:58:04.956Z,100.00
2022-09-11T20:00:33.562Z,100.00
2022-09-11T20:03:02.742Z,100.00
2022-09-11T20:05:34.298Z,100.00
2022-09-11T20:08:03.997Z,100.00
2022-09-11T20:10:32.442Z,100.00
2022-09-11T20:13:01.146Z,100.00
2022-09-11T20:15:29.674Z,100.00
2022-09-11T20:17:57.981Z,100.00
2022-09-11T20:20:26.674Z,100.00
2022-09-11T20:23:00.461Z,100.00
2022-09-11T20:25:29.295Z,100.00
2022-09-11T20:27:57.931Z,100.00
2022-09-11T20:30:27.218Z,100.00
2022-09-11T20:32:57.572Z,100.00
2022-09-11T20:35:27.533Z,100.00
2022-09-11T20:37:57.993Z,100.00
2022-09-11T20:40:27.650Z,100.00
2022-09-11T20:42:56.043Z,100.00
2022-09-11T20:45:24.392Z,100.00
2022-09-11T20:48:00.484Z,100.00
2022-09-11T20:50:29.487Z,100.00
2022-09-11T20:53:00.504Z,100.00
2022-09-11T20:55:31.910Z,100.00
2022-09-11T20:58:00.768Z,100.00
2022-09-11T21:00:30.808Z,100.00
2022-09-11T21:03:01.271Z,100.00
2022-09-11T21:05:29.499Z,100.00
2022-09-11T21:08:00.712Z,100.00
2022-09-11T21:10:29.282Z,100.00
2022-09-11T21:12:58.697Z,100.00
2022-09-11T21:15:27.176Z,100.00
2022-09-11T21:17:55.198Z,100.00
2022-09-11T21:20:24.128Z,100.00
2022-09-11T21:22:52.634Z,100.00
2022-09-11T21:25:22.618Z,100.00
2022-09-11T21:27:51.225Z,100.00
2022-09-11T21:30:19.880Z,100.00
2022-09-11T21:32:48.280Z,100.00
2022-09-11T21:35:17.276Z,100.00
2022-09-11T21:37:53.193Z,100.00
2022-09-11T21:40:25.739Z,100.00
2022-09-11T21:42:54.222Z,100.00
2022-09-11T21:45:23.100Z,100.00
2022-09-11T21:47:54.443Z,100.00
2022-09-11T21:50:23.575Z,100.00
2022-09-11T21:52:52.237Z,100.00
2022-09-11T21:55:21.848Z,100.00
2022-09-11T21:57:51.765Z,100.00
2022-09-11T22:00:21.275Z,100.00
2022-09-11T22:02:49.908Z,100.00
2022-09-11T22:05:20.827Z,100.00
2022-09-11T22:07:49.409Z,100.00
2022-09-11T22:10:18.272Z,100.00
2022-09-11T22:12:46.936Z,100.00
2022-09-11T22:15:17.272Z,100.00
2022-09-11T22:17:46.949Z,100.00
2022-09-11T22:20:15.372Z,100.00
2022-09-11T22:22:44.180Z,100.00
2022-09-11T22:25:12.737Z,100.00
2022-09-11T22:27:41.049Z,100.00
2022-09-11T22:30:10.151Z,100.00
2022-09-11T22:32:46.264Z,100.00
2022-09-11T22:35:15.303Z,100.00
2022-09-11T22:37:44.795Z,100.00
2022-09-11T22:40:13.219Z,100.00
2022-09-11T22:42:43.103Z,100.00
2022-09-11T22:45:12.146Z,100.00
2022-09-11T22:47:40.717Z,100.00
2022-09-11T22:50:11.832Z,100.00
2022-09-11T22:52:40.600Z,100.00
2022-09-11T22:55:12.344Z,100.00
2022-09-11T22:57:40.758Z,100.00
2022-09-11T23:00:12.231Z,100.00
2022-09-11T23:02:40.940Z,100.00
2022-09-11T23:05:28.358Z,100.00
2022-09-11T23:07:56.435Z,100.00
2022-09-11T23:10:27.250Z,100.00
2022-09-11T23:12:55.881Z,100.00
2022-09-11T23:15:24.251Z,100.00
2022-09-11T23:17:52.383Z,100.00
2022-09-11T23:20:22.542Z,100.00
2022-09-11T23:22:51.193Z,100.00
2022-09-11T23:25:21.805Z,100.00
2022-09-11T23:27:50.488Z,100.00
2022-09-11T23:30:19.479Z,100.00
2022-09-11T23:32:47.906Z,100.00
2022-09-11T23:35:17.113Z,100.00
2022-09-11T23:37:46.915Z,100.00
2022-09-11T23:40:16.130Z,100.00
2022-09-11T23:42:47.078Z,100.00
2022-09-11T23:45:16.824Z,100.00
2022-09-11T23:47:45.144Z,100.00
2022-09-11T23:50:13.837Z,100.00
2022-09-11T23:52:42.192Z,100.00
2022-09-11T23:55:12.981Z,100.00
2022-09-11T23:57:41.289Z,100.00
